Main page
METAR-TAF:

METAR-TAF

Airports :

Clarence Valley Regional Airport

Grafton, Australia

latitude: 29-45-36S, longitude: 153-01-48E, elevation: 34 m

Current weather observation

The report was made 46 minutes ago, at 23:00 UTC
Wind 7 kt from the North
Temperature 24°C
Humidity 74%
Pressure 1015 hPa
Visibility 10 km or more

METAR: YGFN 072300Z AUTO 35007KT 9999 // NCD 24/19 Q1015

Time: 10:46 (23:46 UTC)


TAF: missing

Weather observations and forecasts of more than 4000 airports (METAR and TAF reports).

The available stations are represented by yellow and red dots on the map.

Hover mouse over dot to see the name of the station.

Then click to see weather observations and forecasts.

To change the map : click on the green buttons with a black cross to zoom in, on the green button with a dash to zoom out, or on the green arrows for adjacent maps.


METAR-TAF: